ADDS METAR Data INFO
IDs: Format: Raw Decoded Include TAF

Data at: 1747 UTC 21 Oct 2017

KHTL 211653Z AUTO 22009KT 10SM CLR 21/07 A3012 RMK AO2 SLP198 T02060072
KHTL 211553Z AUTO 18008KT 10SM CLR 18/10 A3012 RMK AO2 SLP201 T01830100
KHTL 211453Z AUTO 18006KT 10SM CLR 15/09 A3012 RMK AO2 SLP201 T01500094 58001
KHTL 211353Z AUTO 17008KT 10SM CLR 15/09 A3013 RMK AO2 SLP203 T01500094
KHTL 211253Z AUTO 17008KT 10SM CLR 12/09 A3012 RMK AO2 SLP202 T01220094
KHTL 211153Z AUTO 17003KT 10SM CLR 09/07 A3012 RMK AO2 SLP203 T00940072 10144 20072 51005
KHTL 211053Z AUTO 19004KT 10SM CLR 12/08 A3012 RMK AO2 SLP200 T01220083
KHTL 210953Z AUTO 21006KT 10SM CLR 14/09 A3012 RMK AO2 SLP197 T01440089
KHTL 210853Z AUTO 00000KT 8SM CLR 08/07 A3011 RMK AO2 SLP197 T00830072 50002
KHTL 210753Z AUTO 07003KT 10SM CLR 09/07 A3011 RMK AO2 SLP196 T00890072
KHTL 210653Z AUTO 00000KT 10SM CLR 08/07 A3011 RMK AO2 SLP196 T00830072
KHTL 210553Z AUTO 08003KT 10SM CLR 09/07 A3010 RMK AO2 SLP195 T00890072 10183 20089 53004
KHTL 210453Z AUTO 00000KT 10SM CLR 12/09 A3009 RMK AO2 SLP190 T01220094 402330022
KHTL 210353Z AUTO 00000KT 10SM CLR 15/09 A3009 RMK AO2 SLP190 T01500094
KHTL 210253Z AUTO 19005KT 10SM CLR 15/08 A3009 RMK AO2 SLP191 T01500083 53003
KHTL 210153Z AUTO 20005KT 10SM CLR 16/08 A3008 RMK AO2 SLP188 T01610083
KHTL 210053Z AUTO 19004KT 10SM CLR 18/08 A3008 RMK AO2 SLP187 T01780083
KHTL 202353Z AUTO 20005KT 10SM CLR 19/09 A3008 RMK AO2 SLP191 T01890089 10233 20178 53002
KHTL 202253Z AUTO 19006KT 10SM CLR 19/09 A3007 RMK AO2 SLP186 T01940089
KHTL 202153Z AUTO 21008KT 10SM CLR 22/09 A3007 RMK AO2 SLP186 T02170089
KHTL 202053Z AUTO 21010KT 10SM CLR 23/09 A3007 RMK AO2 SLP184 T02280094 56014
KHTL 201953Z AUTO 21010KT 10SM CLR 23/09 A3008 RMK AO2 SLP190 T02330094
KHTL 201853Z AUTO 22010G20KT 10SM CLR 23/09 A3009 RMK AO2 SLP191 T02330089
KHTL 201753Z AUTO 22011G16KT 10SM CLR 22/09 A3012 RMK AO2 SLP199 T02220094 10222 20028 58019
KHTL 201653Z AUTO 23008KT 10SM CLR 21/09 A3015 RMK AO2 SLP211 T02110089
KHTL 201553Z AUTO 23006KT 10SM CLR 18/07 A3017 RMK AO2 SLP218 T01830072
KHTL 201453Z AUTO 21008KT 10SM CLR 16/06 A3018 RMK AO2 SLP222 T01560061 58001
KHTL 201353Z AUTO 22008KT 10SM CLR 15/04 A3018 RMK AO2 SLP224 T01500044
KHTL 201253Z AUTO 00000KT 10SM CLR 06/03 A3018 RMK AO2 SLP228 T00610028
KHTL 201153Z AUTO 18003KT 10SM CLR 04/01 A3018 RMK AO2 SLP226 T00390011 10094 20022 51005
KHTL 201053Z AUTO 00000KT 10SM CLR 06/02 A3018 RMK AO2 SLP224 T00560017
KHTL 200953Z AUTO 00000KT 10SM CLR 03/01 A3017 RMK AO2 SLP222 T00330006
KHTL 200853Z AUTO 20006KT 10SM CLR 09/02 A3016 RMK AO2 SLP217 T00890017 50001
KHTL 200753Z AUTO 00000KT 10SM CLR 04/01 A3017 RMK AO2 SLP220 T00390006
KHTL 200653Z AUTO 23005KT 10SM CLR 09/01 A3017 RMK AO2 SLP219 T00940011
KHTL 200553Z AUTO 25004KT 10SM CLR 09/01 A3016 RMK AO2 SLP216 T00940011 10122 20067 50004